sensor_id;sensor_type;location;lat;lon;timestamp;P1;durP1;ratioP1;P2;durP2;ratioP2
20336;SDS011;10326;53.660;10.200;2022-09-27T00:01:22;2.50;;;2.30;;
20336;SDS011;10326;53.660;10.200;2022-09-27T00:03:51;3.83;;;2.90;;
20336;SDS011;10326;53.660;10.200;2022-09-27T00:06:21;2.60;;;2.40;;
20336;SDS011;10326;53.660;10.200;2022-09-27T00:08:51;2.33;;;2.13;;
20336;SDS011;10326;53.660;10.200;2022-09-27T00:11:21;2.70;;;2.45;;
20336;SDS011;10326;53.660;10.200;2022-09-27T00:13:52;2.35;;;2.15;;
20336;SDS011;10326;53.660;10.200;2022-09-27T00:16:22;2.22;;;2.05;;
20336;SDS011;10326;53.660;10.200;2022-09-27T00:18:50;2.28;;;1.92;;
20336;SDS011;10326;53.660;10.200;2022-09-27T00:21:17;2.30;;;2.10;;
20336;SDS011;10326;53.660;10.200;2022-09-27T00:23:45;2.30;;;2.20;;
20336;SDS011;10326;53.660;10.200;2022-09-27T00:26:12;2.13;;;2.03;;
20336;SDS011;10326;53.660;10.200;2022-09-27T00:28:40;2.47;;;2.28;;
20336;SDS011;10326;53.660;10.200;2022-09-27T00:31:13;2.33;;;2.13;;
20336;SDS011;10326;53.660;10.200;2022-09-27T00:33:49;3.38;;;2.05;;
20336;SDS011;10326;53.660;10.200;2022-09-27T00:36:19;2.30;;;2.20;;
20336;SDS011;10326;53.660;10.200;2022-09-27T00:38:48;2.22;;;2.10;;
20336;SDS011;10326;53.660;10.200;2022-09-27T00:41:16;2.70;;;2.20;;
20336;SDS011;10326;53.660;10.200;2022-09-27T00:43:47;2.85;;;2.30;;
20336;SDS011;10326;53.660;10.200;2022-09-27T00:46:18;2.15;;;2.05;;
20336;SDS011;10326;53.660;10.200;2022-09-27T00:48:57;2.15;;;2.05;;
20336;SDS011;10326;53.660;10.200;2022-09-27T00:51:32;2.13;;;2.00;;
20336;SDS011;10326;53.660;10.200;2022-09-27T00:54:01;1.80;;;1.70;;
20336;SDS011;10326;53.660;10.200;2022-09-27T00:56:30;2.28;;;2.05;;
20336;SDS011;10326;53.660;10.200;2022-09-27T00:58:58;2.10;;;1.90;;
20336;SDS011;10326;53.660;10.200;2022-09-27T01:01:33;2.92;;;2.00;;
20336;SDS011;10326;53.660;10.200;2022-09-27T01:04:02;2.28;;;2.15;;
20336;SDS011;10326;53.660;10.200;2022-09-27T01:06:33;2.20;;;1.98;;
20336;SDS011;10326;53.660;10.200;2022-09-27T01:09:02;2.20;;;2.00;;
20336;SDS011;10326;53.660;10.200;2022-09-27T01:11:37;2.30;;;2.10;;
20336;SDS011;10326;53.660;10.200;2022-09-27T01:17:12;2.17;;;2.00;;
20336;SDS011;10326;53.660;10.200;2022-09-27T01:20:10;2.00;;;1.90;;
20336;SDS011;10326;53.660;10.200;2022-09-27T01:23:24;1.98;;;1.88;;
20336;SDS011;10326;53.660;10.200;2022-09-27T01:26:20;2.60;;;1.98;;
20336;SDS011;10326;53.660;10.200;2022-09-27T01:29:06;2.00;;;1.90;;
20336;SDS011;10326;53.660;10.200;2022-09-27T01:31:40;1.90;;;1.80;;
20336;SDS011;10326;53.660;10.200;2022-09-27T01:34:17;2.35;;;1.80;;
20336;SDS011;10326;53.660;10.200;2022-09-27T01:36:52;1.92;;;1.70;;
20336;SDS011;10326;53.660;10.200;2022-09-27T01:39:31;2.42;;;2.22;;
20336;SDS011;10326;53.660;10.200;2022-09-27T01:42:38;1.95;;;1.77;;
20336;SDS011;10326;53.660;10.200;2022-09-27T01:45:16;2.40;;;1.90;;
20336;SDS011;10326;53.660;10.200;2022-09-27T01:48:08;1.95;;;1.85;;
20336;SDS011;10326;53.660;10.200;2022-09-27T01:50:54;1.98;;;1.85;;
20336;SDS011;10326;53.660;10.200;2022-09-27T01:53:29;1.60;;;1.50;;
20336;SDS011;10326;53.660;10.200;2022-09-27T01:56:20;1.83;;;1.73;;
20336;SDS011;10326;53.660;10.200;2022-09-27T01:58:57;2.03;;;1.80;;
20336;SDS011;10326;53.660;10.200;2022-09-27T02:01:31;1.77;;;1.67;;
20336;SDS011;10326;53.660;10.200;2022-09-27T02:04:02;3.05;;;2.03;;
20336;SDS011;10326;53.660;10.200;2022-09-27T02:06:53;2.10;;;1.80;;
20336;SDS011;10326;53.660;10.200;2022-09-27T02:09:28;1.98;;;1.88;;
20336;SDS011;10326;53.660;10.200;2022-09-27T02:12:18;2.13;;;2.03;;
20336;SDS011;10326;53.660;10.200;2022-09-27T02:14:52;1.70;;;1.60;;
20336;SDS011;10326;53.660;10.200;2022-09-27T02:17:29;1.90;;;1.80;;
20336;SDS011;10326;53.660;10.200;2022-09-27T02:20:05;2.35;;;2.15;;
20336;SDS011;10326;53.660;10.200;2022-09-27T02:22:46;1.80;;;1.70;;
20336;SDS011;10326;53.660;10.200;2022-09-27T02:25:19;1.70;;;1.60;;
20336;SDS011;10326;53.660;10.200;2022-09-27T02:27:56;2.05;;;1.95;;
20336;SDS011;10326;53.660;10.200;2022-09-27T02:30:32;1.92;;;1.50;;
20336;SDS011;10326;53.660;10.200;2022-09-27T02:33:13;1.70;;;1.60;;
20336;SDS011;10326;53.660;10.200;2022-09-27T02:35:42;2.17;;;1.98;;
20336;SDS011;10326;53.660;10.200;2022-09-27T02:38:10;1.95;;;1.75;;
20336;SDS011;10326;53.660;10.200;2022-09-27T02:40:41;2.13;;;2.03;;
20336;SDS011;10326;53.660;10.200;2022-09-27T02:43:11;2.33;;;2.22;;
20336;SDS011;10326;53.660;10.200;2022-09-27T02:45:44;2.03;;;1.85;;
20336;SDS011;10326;53.660;10.200;2022-09-27T02:48:25;2.10;;;1.90;;
20336;SDS011;10326;53.660;10.200;2022-09-27T02:51:08;1.95;;;1.85;;
20336;SDS011;10326;53.660;10.200;2022-09-27T02:53:58;2.40;;;2.30;;
20336;SDS011;10326;53.660;10.200;2022-09-27T02:56:59;2.30;;;2.10;;
20336;SDS011;10326;53.660;10.200;2022-09-27T02:59:55;2.05;;;1.95;;
20336;SDS011;10326;53.660;10.200;2022-09-27T03:02:49;1.83;;;1.73;;
20336;SDS011;10326;53.660;10.200;2022-09-27T03:05:36;2.20;;;2.10;;
20336;SDS011;10326;53.660;10.200;2022-09-27T03:08:09;2.08;;;1.98;;
20336;SDS011;10326;53.660;10.200;2022-09-27T03:10:38;2.50;;;1.83;;
20336;SDS011;10326;53.660;10.200;2022-09-27T03:13:06;2.28;;;2.08;;
20336;SDS011;10326;53.660;10.200;2022-09-27T03:15:33;2.30;;;2.10;;
20336;SDS011;10326;53.660;10.200;2022-09-27T03:18:00;2.20;;;2.10;;
20336;SDS011;10326;53.660;10.200;2022-09-27T03:20:42;2.30;;;2.20;;
20336;SDS011;10326;53.660;10.200;2022-09-27T03:23:20;2.33;;;2.00;;
20336;SDS011;10326;53.660;10.200;2022-09-27T03:25:47;2.25;;;2.15;;
20336;SDS011;10326;53.660;10.200;2022-09-27T03:28:16;2.22;;;2.03;;
20336;SDS011;10326;53.660;10.200;2022-09-27T03:30:44;2.10;;;1.90;;
20336;SDS011;10326;53.660;10.200;2022-09-27T03:33:21;2.38;;;2.10;;
20336;SDS011;10326;53.660;10.200;2022-09-27T03:35:55;1.88;;;1.77;;
20336;SDS011;10326;53.660;10.200;2022-09-27T03:38:24;2.28;;;2.10;;
20336;SDS011;10326;53.660;10.200;2022-09-27T03:40:51;2.00;;;1.90;;
20336;SDS011;10326;53.660;10.200;2022-09-27T03:43:18;1.80;;;1.70;;
20336;SDS011;10326;53.660;10.200;2022-09-27T03:45:46;2.10;;;2.00;;
20336;SDS011;10326;53.660;10.200;2022-09-27T03:48:13;1.90;;;1.80;;
20336;SDS011;10326;53.660;10.200;2022-09-27T03:50:40;2.10;;;2.00;;
20336;SDS011;10326;53.660;10.200;2022-09-27T03:53:07;2.15;;;1.95;;
20336;SDS011;10326;53.660;10.200;2022-09-27T03:55:36;2.42;;;2.28;;
20336;SDS011;10326;53.660;10.200;2022-09-27T03:58:04;2.40;;;2.00;;
20336;SDS011;10326;53.660;10.200;2022-09-27T04:00:32;2.47;;;2.28;;
20336;SDS011;10326;53.660;10.200;2022-09-27T04:03:01;2.13;;;2.00;;
20336;SDS011;10326;53.660;10.200;2022-09-27T04:05:47;2.40;;;2.25;;
20336;SDS011;10326;53.660;10.200;2022-09-27T04:08:19;2.22;;;2.03;;
20336;SDS011;10326;53.660;10.200;2022-09-27T04:10:47;2.85;;;2.00;;
20336;SDS011;10326;53.660;10.200;2022-09-27T04:13:16;2.00;;;1.90;;
20336;SDS011;10326;53.660;10.200;2022-09-27T04:15:51;2.17;;;2.08;;
20336;SDS011;10326;53.660;10.200;2022-09-27T04:18:38;2.40;;;2.20;;
20336;SDS011;10326;53.660;10.200;2022-09-27T04:21:25;2.17;;;1.98;;
20336;SDS011;10326;53.660;10.200;2022-09-27T04:23:54;3.03;;;2.03;;
20336;SDS011;10326;53.660;10.200;2022-09-27T04:26:23;2.50;;;2.30;;
20336;SDS011;10326;53.660;10.200;2022-09-27T04:28:57;2.97;;;2.78;;
20336;SDS011;10326;53.660;10.200;2022-09-27T04:31:25;2.10;;;2.00;;
20336;SDS011;10326;53.660;10.200;2022-09-27T04:34:12;2.78;;;2.50;;
20336;SDS011;10326;53.660;10.200;2022-09-27T04:36:40;2.67;;;2.47;;
20336;SDS011;10326;53.660;10.200;2022-09-27T04:39:09;2.65;;;2.50;;
20336;SDS011;10326;53.660;10.200;2022-09-27T04:41:41;2.80;;;2.60;;
20336;SDS011;10326;53.660;10.200;2022-09-27T04:44:09;2.67;;;2.47;;
20336;SDS011;10326;53.660;10.200;2022-09-27T04:46:39;2.50;;;2.40;;
20336;SDS011;10326;53.660;10.200;2022-09-27T04:49:06;2.47;;;2.30;;
20336;SDS011;10326;53.660;10.200;2022-09-27T04:51:36;2.83;;;2.63;;
20336;SDS011;10326;53.660;10.200;2022-09-27T04:54:03;2.75;;;2.58;;
20336;SDS011;10326;53.660;10.200;2022-09-27T04:56:34;2.60;;;2.50;;
20336;SDS011;10326;53.660;10.200;2022-09-27T04:59:04;3.22;;;3.03;;
20336;SDS011;10326;53.660;10.200;2022-09-27T05:01:31;3.47;;;3.20;;
20336;SDS011;10326;53.660;10.200;2022-09-27T05:04:11;3.40;;;3.10;;
20336;SDS011;10326;53.660;10.200;2022-09-27T05:06:41;3.28;;;3.08;;
20336;SDS011;10326;53.660;10.200;2022-09-27T05:09:28;3.42;;;3.22;;
20336;SDS011;10326;53.660;10.200;2022-09-27T05:11:56;3.22;;;3.03;;
20336;SDS011;10326;53.660;10.200;2022-09-27T05:14:38;3.10;;;2.90;;
20336;SDS011;10326;53.660;10.200;2022-09-27T05:17:41;3.47;;;3.28;;
20336;SDS011;10326;53.660;10.200;2022-09-27T05:20:26;3.10;;;2.90;;
20336;SDS011;10326;53.660;10.200;2022-09-27T05:23:11;3.67;;;3.47;;
20336;SDS011;10326;53.660;10.200;2022-09-27T05:25:39;3.53;;;3.33;;
20336;SDS011;10326;53.660;10.200;2022-09-27T05:28:07;3.63;;;3.42;;
20336;SDS011;10326;53.660;10.200;2022-09-27T05:30:36;4.00;;;3.60;;
20336;SDS011;10326;53.660;10.200;2022-09-27T05:33:07;3.88;;;3.58;;
20336;SDS011;10326;53.660;10.200;2022-09-27T05:36:07;3.92;;;3.63;;
20336;SDS011;10326;53.660;10.200;2022-09-27T05:38:35;3.70;;;3.40;;
20336;SDS011;10326;53.660;10.200;2022-09-27T05:41:03;4.20;;;3.90;;
20336;SDS011;10326;53.660;10.200;2022-09-27T05:43:31;4.22;;;3.92;;
20336;SDS011;10326;53.660;10.200;2022-09-27T05:46:01;4.22;;;3.92;;
20336;SDS011;10326;53.660;10.200;2022-09-27T05:48:30;4.60;;;4.15;;
20336;SDS011;10326;53.660;10.200;2022-09-27T05:51:05;4.30;;;4.00;;
20336;SDS011;10326;53.660;10.200;2022-09-27T05:53:35;4.65;;;4.35;;
20336;SDS011;10326;53.660;10.200;2022-09-27T05:56:06;4.30;;;3.90;;
20336;SDS011;10326;53.660;10.200;2022-09-27T05:58:53;4.72;;;4.43;;
20336;SDS011;10326;53.660;10.200;2022-09-27T06:01:25;4.65;;;4.35;;
20336;SDS011;10326;53.660;10.200;2022-09-27T06:04:21;4.65;;;4.25;;
20336;SDS011;10326;53.660;10.200;2022-09-27T06:06:59;4.72;;;4.43;;
20336;SDS011;10326;53.660;10.200;2022-09-27T06:09:26;4.93;;;4.45;;
20336;SDS011;10326;53.660;10.200;2022-09-27T06:11:55;4.68;;;4.28;;
20336;SDS011;10326;53.660;10.200;2022-09-27T06:14:22;4.45;;;4.15;;
20336;SDS011;10326;53.660;10.200;2022-09-27T06:17:00;4.63;;;4.22;;
20336;SDS011;10326;53.660;10.200;2022-09-27T06:19:31;4.75;;;4.35;;
20336;SDS011;10326;53.660;10.200;2022-09-27T06:21:59;4.68;;;4.30;;
20336;SDS011;10326;53.660;10.200;2022-09-27T06:24:36;4.30;;;4.00;;
20336;SDS011;10326;53.660;10.200;2022-09-27T06:27:08;4.50;;;4.20;;
20336;SDS011;10326;53.660;10.200;2022-09-27T06:29:52;4.57;;;4.18;;
20336;SDS011;10326;53.660;10.200;2022-09-27T06:32:36;4.20;;;3.90;;
20336;SDS011;10326;53.660;10.200;2022-09-27T06:35:18;4.55;;;4.25;;
20336;SDS011;10326;53.660;10.200;2022-09-27T06:37:49;5.03;;;4.63;;
20336;SDS011;10326;53.660;10.200;2022-09-27T06:40:16;4.97;;;4.57;;
20336;SDS011;10326;53.660;10.200;2022-09-27T06:42:53;4.95;;;4.65;;
20336;SDS011;10326;53.660;10.200;2022-09-27T06:45:46;4.85;;;4.45;;
20336;SDS011;10326;53.660;10.200;2022-09-27T06:48:35;6.57;;;5.90;;
20336;SDS011;10326;53.660;10.200;2022-09-27T06:51:12;5.88;;;5.38;;
20336;SDS011;10326;53.660;10.200;2022-09-27T06:53:41;6.50;;;6.00;;
20336;SDS011;10326;53.660;10.200;2022-09-27T06:56:08;6.05;;;5.55;;
20336;SDS011;10326;53.660;10.200;2022-09-27T06:58:51;4.95;;;4.55;;
20336;SDS011;10326;53.660;10.200;2022-09-27T07:01:42;4.32;;;3.92;;
20336;SDS011;10326;53.660;10.200;2022-09-27T07:04:30;4.40;;;4.00;;
20336;SDS011;10326;53.660;10.200;2022-09-27T07:07:12;4.68;;;4.28;;
20336;SDS011;10326;53.660;10.200;2022-09-27T07:09:43;4.22;;;3.88;;
20336;SDS011;10326;53.660;10.200;2022-09-27T07:12:11;4.80;;;4.40;;
20336;SDS011;10326;53.660;10.200;2022-09-27T07:14:39;4.32;;;4.00;;
20336;SDS011;10326;53.660;10.200;2022-09-27T07:17:10;3.83;;;3.53;;
20336;SDS011;10326;53.660;10.200;2022-09-27T07:19:44;4.47;;;4.07;;
20336;SDS011;10326;53.660;10.200;2022-09-27T07:22:11;3.72;;;3.42;;
20336;SDS011;10326;53.660;10.200;2022-09-27T07:24:41;4.03;;;3.72;;
20336;SDS011;10326;53.660;10.200;2022-09-27T07:27:09;3.40;;;3.10;;
20336;SDS011;10326;53.660;10.200;2022-09-27T07:29:37;3.63;;;2.90;;
20336;SDS011;10326;53.660;10.200;2022-09-27T07:32:04;3.20;;;2.92;;
20336;SDS011;10326;53.660;10.200;2022-09-27T07:34:32;2.95;;;2.65;;
20336;SDS011;10326;53.660;10.200;2022-09-27T07:37:02;2.72;;;2.53;;
20336;SDS011;10326;53.660;10.200;2022-09-27T07:39:32;2.50;;;2.30;;
20336;SDS011;10326;53.660;10.200;2022-09-27T07:42:00;2.67;;;1.92;;
20336;SDS011;10326;53.660;10.200;2022-09-27T07:44:28;2.58;;;2.03;;
20336;SDS011;10326;53.660;10.200;2022-09-27T07:47:08;1.52;;;1.42;;
20336;SDS011;10326;53.660;10.200;2022-09-27T07:49:58;3.47;;;1.90;;
20336;SDS011;10326;53.660;10.200;2022-09-27T07:52:46;2.33;;;1.70;;
20336;SDS011;10326;53.660;10.200;2022-09-27T07:55:33;1.92;;;1.50;;
20336;SDS011;10326;53.660;10.200;2022-09-27T07:58:07;1.65;;;1.48;;
20336;SDS011;10326;53.660;10.200;2022-09-27T08:00:37;2.13;;;1.60;;
20336;SDS011;10326;53.660;10.200;2022-09-27T08:03:09;3.25;;;1.67;;
20336;SDS011;10326;53.660;10.200;2022-09-27T08:05:40;1.98;;;1.63;;
20336;SDS011;10326;53.660;10.200;2022-09-27T08:08:09;2.72;;;1.80;;
20336;SDS011;10326;53.660;10.200;2022-09-27T08:10:37;2.10;;;1.80;;
20336;SDS011;10326;53.660;10.200;2022-09-27T08:13:08;2.08;;;1.75;;
20336;SDS011;10326;53.660;10.200;2022-09-27T08:15:37;4.07;;;1.90;;
20336;SDS011;10326;53.660;10.200;2022-09-27T08:18:06;3.40;;;1.73;;
20336;SDS011;10326;53.660;10.200;2022-09-27T08:20:54;2.63;;;1.70;;
20336;SDS011;10326;53.660;10.200;2022-09-27T08:23:26;2.28;;;1.50;;
20336;SDS011;10326;53.660;10.200;2022-09-27T08:26:10;2.67;;;1.50;;
20336;SDS011;10326;53.660;10.200;2022-09-27T08:28:56;1.58;;;1.48;;
20336;SDS011;10326;53.660;10.200;2022-09-27T08:31:25;2.28;;;1.50;;
20336;SDS011;10326;53.660;10.200;2022-09-27T08:33:55;1.45;;;1.35;;
20336;SDS011;10326;53.660;10.200;2022-09-27T08:36:22;1.63;;;1.33;;
20336;SDS011;10326;53.660;10.200;2022-09-27T08:38:52;2.20;;;1.00;;
20336;SDS011;10326;53.660;10.200;2022-09-27T08:41:26;1.67;;;0.93;;
20336;SDS011;10326;53.660;10.200;2022-09-27T08:44:13;1.30;;;1.20;;
20336;SDS011;10326;53.660;10.200;2022-09-27T08:46:57;1.20;;;1.08;;
20336;SDS011;10326;53.660;10.200;2022-09-27T08:49:32;1.33;;;1.10;;
20336;SDS011;10326;53.660;10.200;2022-09-27T08:52:04;1.20;;;1.10;;
20336;SDS011;10326;53.660;10.200;2022-09-27T08:54:40;1.95;;;1.30;;
20336;SDS011;10326;53.660;10.200;2022-09-27T08:57:09;2.00;;;1.20;;
20336;SDS011;10326;53.660;10.200;2022-09-27T08:59:39;1.38;;;1.05;;
20336;SDS011;10326;53.660;10.200;2022-09-27T09:02:12;2.05;;;1.20;;
20336;SDS011;10326;53.660;10.200;2022-09-27T09:04:46;1.10;;;0.98;;
20336;SDS011;10326;53.660;10.200;2022-09-27T09:07:28;1.88;;;1.05;;
20336;SDS011;10326;53.660;10.200;2022-09-27T09:10:17;2.97;;;1.50;;
20336;SDS011;10326;53.660;10.200;2022-09-27T09:13:19;1.20;;;1.10;;
20336;SDS011;10326;53.660;10.200;2022-09-27T09:16:07;1.08;;;0.82;;
20336;SDS011;10326;53.660;10.200;2022-09-27T09:18:52;1.20;;;1.10;;
20336;SDS011;10326;53.660;10.200;2022-09-27T09:22:05;2.40;;;1.17;;
20336;SDS011;10326;53.660;10.200;2022-09-27T09:24:48;1.90;;;1.10;;
20336;SDS011;10326;53.660;10.200;2022-09-27T09:27:31;1.25;;;0.90;;
20336;SDS011;10326;53.660;10.200;2022-09-27T09:30:13;1.10;;;1.00;;
20336;SDS011;10326;53.660;10.200;2022-09-27T09:33:01;2.00;;;0.90;;
20336;SDS011;10326;53.660;10.200;2022-09-27T09:35:46;1.23;;;1.13;;
20336;SDS011;10326;53.660;10.200;2022-09-27T09:38:20;1.45;;;1.10;;
20336;SDS011;10326;53.660;10.200;2022-09-27T09:40:52;1.30;;;1.00;;
20336;SDS011;10326;53.660;10.200;2022-09-27T09:43:29;1.33;;;1.00;;
20336;SDS011;10326;53.660;10.200;2022-09-27T09:46:06;1.20;;;1.10;;
20336;SDS011;10326;53.660;10.200;2022-09-27T09:48:40;1.52;;;1.10;;
20336;SDS011;10326;53.660;10.200;2022-09-27T09:51:12;1.40;;;1.30;;
20336;SDS011;10326;53.660;10.200;2022-09-27T09:53:48;2.47;;;1.08;;
20336;SDS011;10326;53.660;10.200;2022-09-27T09:56:26;1.13;;;1.02;;
20336;SDS011;10326;53.660;10.200;2022-09-27T09:58:59;2.15;;;1.40;;
20336;SDS011;10326;53.660;10.200;2022-09-27T10:01:35;1.48;;;1.38;;
20336;SDS011;10326;53.660;10.200;2022-09-27T10:04:08;1.27;;;1.17;;
20336;SDS011;10326;53.660;10.200;2022-09-27T10:06:43;1.35;;;1.10;;
20336;SDS011;10326;53.660;10.200;2022-09-27T10:09:10;1.77;;;1.30;;
20336;SDS011;10326;53.660;10.200;2022-09-27T10:11:47;1.20;;;1.10;;
20336;SDS011;10326;53.660;10.200;2022-09-27T10:14:24;1.48;;;1.15;;
20336;SDS011;10326;53.660;10.200;2022-09-27T10:16:57;1.30;;;1.20;;
20336;SDS011;10326;53.660;10.200;2022-09-27T10:19:27;1.55;;;1.27;;
20336;SDS011;10326;53.660;10.200;2022-09-27T10:22:00;1.33;;;1.20;;
20336;SDS011;10326;53.660;10.200;2022-09-27T10:24:51;1.85;;;1.48;;
20336;SDS011;10326;53.660;10.200;2022-09-27T10:27:41;1.52;;;1.30;;
20336;SDS011;10326;53.660;10.200;2022-09-27T10:30:21;2.03;;;1.23;;
20336;SDS011;10326;53.660;10.200;2022-09-27T10:32:56;1.50;;;1.40;;
20336;SDS011;10326;53.660;10.200;2022-09-27T10:35:41;1.38;;;1.20;;
20336;SDS011;10326;53.660;10.200;2022-09-27T10:38:23;1.65;;;1.33;;
20336;SDS011;10326;53.660;10.200;2022-09-27T10:41:14;1.50;;;1.40;;
20336;SDS011;10326;53.660;10.200;2022-09-27T10:43:54;2.33;;;1.60;;
20336;SDS011;10326;53.660;10.200;2022-09-27T10:46:28;1.73;;;1.40;;
20336;SDS011;10326;53.660;10.200;2022-09-27T10:49:18;1.27;;;1.00;;
20336;SDS011;10326;53.660;10.200;2022-09-27T10:51:53;1.77;;;1.20;;
20336;SDS011;10326;53.660;10.200;2022-09-27T10:54:22;1.73;;;1.23;;
20336;SDS011;10326;53.660;10.200;2022-09-27T10:56:54;1.65;;;1.20;;
20336;SDS011;10326;53.660;10.200;2022-09-27T10:59:24;1.20;;;1.10;;
20336;SDS011;10326;53.660;10.200;2022-09-27T11:01:56;1.98;;;1.40;;
20336;SDS011;10326;53.660;10.200;2022-09-27T11:04:36;1.13;;;1.05;;
20336;SDS011;10326;53.660;10.200;2022-09-27T11:07:13;1.65;;;1.42;;
20336;SDS011;10326;53.660;10.200;2022-09-27T11:09:48;1.35;;;1.25;;
20336;SDS011;10326;53.660;10.200;2022-09-27T11:12:20;1.40;;;1.27;;
20336;SDS011;10326;53.660;10.200;2022-09-27T11:14:54;1.42;;;1.33;;
20336;SDS011;10326;53.660;10.200;2022-09-27T11:17:26;1.80;;;1.50;;
20336;SDS011;10326;53.660;10.200;2022-09-27T11:20:07;2.72;;;1.10;;
20336;SDS011;10326;53.660;10.200;2022-09-27T11:22:52;1.95;;;1.30;;
20336;SDS011;10326;53.660;10.200;2022-09-27T11:25:51;1.52;;;1.30;;
20336;SDS011;10326;53.660;10.200;2022-09-27T11:28:32;1.52;;;1.23;;
20336;SDS011;10326;53.660;10.200;2022-09-27T11:31:26;1.77;;;1.30;;
20336;SDS011;10326;53.660;10.200;2022-09-27T11:34:09;1.60;;;1.50;;
20336;SDS011;10326;53.660;10.200;2022-09-27T11:36:55;1.30;;;1.20;;
20336;SDS011;10326;53.660;10.200;2022-09-27T11:39:42;1.40;;;1.30;;
20336;SDS011;10326;53.660;10.200;2022-09-27T11:42:30;1.52;;;1.38;;
20336;SDS011;10326;53.660;10.200;2022-09-27T11:45:39;1.38;;;1.27;;
20336;SDS011;10326;53.660;10.200;2022-09-27T11:48:22;1.70;;;1.17;;
20336;SDS011;10326;53.660;10.200;2022-09-27T11:51:10;1.60;;;1.13;;
20336;SDS011;10326;53.660;10.200;2022-09-27T11:54:02;1.15;;;1.00;;
20336;SDS011;10326;53.660;10.200;2022-09-27T11:56:47;1.10;;;1.10;;
20336;SDS011;10326;53.660;10.200;2022-09-27T12:02:54;1.10;;;1.00;;
20336;SDS011;10326;53.660;10.200;2022-09-27T12:05:55;1.00;;;1.00;;
20336;SDS011;10326;53.660;10.200;2022-09-27T12:08:44;1.15;;;1.10;;
20336;SDS011;10326;53.660;10.200;2022-09-27T12:11:26;0.82;;;0.70;;
20336;SDS011;10326;53.660;10.200;2022-09-27T12:14:03;0.90;;;0.90;;
20336;SDS011;10326;53.660;10.200;2022-09-27T12:16:36;1.25;;;0.85;;
20336;SDS011;10326;53.660;10.200;2022-09-27T12:19:08;1.17;;;1.08;;
20336;SDS011;10326;53.660;10.200;2022-09-27T12:22:00;1.00;;;1.00;;
20336;SDS011;10326;53.660;10.200;2022-09-27T12:24:35;1.13;;;1.02;;
20336;SDS011;10326;53.660;10.200;2022-09-27T12:27:33;1.52;;;1.08;;
20336;SDS011;10326;53.660;10.200;2022-09-27T12:30:05;1.33;;;1.00;;
20336;SDS011;10326;53.660;10.200;2022-09-27T12:32:40;1.08;;;1.00;;
20336;SDS011;10326;53.660;10.200;2022-09-27T12:35:17;0.98;;;0.98;;
20336;SDS011;10326;53.660;10.200;2022-09-27T12:37:49;1.13;;;1.02;;
20336;SDS011;10326;53.660;10.200;2022-09-27T12:40:27;1.02;;;0.93;;
20336;SDS011;10326;53.660;10.200;2022-09-27T12:43:01;1.20;;;1.10;;
20336;SDS011;10326;53.660;10.200;2022-09-27T12:45:52;1.33;;;1.15;;
20336;SDS011;10326;53.660;10.200;2022-09-27T12:48:31;1.23;;;1.10;;
20336;SDS011;10326;53.660;10.200;2022-09-27T12:51:08;1.58;;;1.02;;
20336;SDS011;10326;53.660;10.200;2022-09-27T12:53:42;1.30;;;1.20;;
20336;SDS011;10326;53.660;10.200;2022-09-27T12:56:33;1.35;;;1.23;;
20336;SDS011;10326;53.660;10.200;2022-09-27T12:59:14;1.30;;;1.20;;
20336;SDS011;10326;53.660;10.200;2022-09-27T13:08:34;1.42;;;1.33;;
20336;SDS011;10326;53.660;10.200;2022-09-27T13:11:24;1.20;;;1.00;;
20336;SDS011;10326;53.660;10.200;2022-09-27T13:14:02;1.13;;;1.02;;
20336;SDS011;10326;53.660;10.200;2022-09-27T13:16:39;1.10;;;0.93;;
20336;SDS011;10326;53.660;10.200;2022-09-27T13:19:15;1.60;;;1.20;;
20336;SDS011;10326;53.660;10.200;2022-09-27T13:22:05;1.08;;;1.00;;
20336;SDS011;10326;53.660;10.200;2022-09-27T13:24:57;1.02;;;1.02;;
20336;SDS011;10326;53.660;10.200;2022-09-27T13:27:44;2.13;;;1.10;;
20336;SDS011;10326;53.660;10.200;2022-09-27T13:33:20;1.00;;;0.90;;
20336;SDS011;10326;53.660;10.200;2022-09-27T13:36:17;0.95;;;0.85;;
20336;SDS011;10326;53.660;10.200;2022-09-27T13:39:02;1.42;;;0.90;;
20336;SDS011;10326;53.660;10.200;2022-09-27T13:42:20;1.08;;;0.98;;
20336;SDS011;10326;53.660;10.200;2022-09-27T13:45:16;1.02;;;0.82;;
20336;SDS011;10326;53.660;10.200;2022-09-27T13:47:50;1.17;;;0.90;;
20336;SDS011;10326;53.660;10.200;2022-09-27T13:50:30;1.20;;;0.82;;
20336;SDS011;10326;53.660;10.200;2022-09-27T13:53:18;1.77;;;1.00;;
20336;SDS011;10326;53.660;10.200;2022-09-27T13:55:52;1.25;;;1.10;;
20336;SDS011;10326;53.660;10.200;2022-09-27T13:58:31;1.38;;;0.90;;
20336;SDS011;10326;53.660;10.200;2022-09-27T14:01:22;0.93;;;0.88;;
20336;SDS011;10326;53.660;10.200;2022-09-27T14:03:58;1.20;;;1.08;;
20336;SDS011;10326;53.660;10.200;2022-09-27T14:06:29;1.05;;;0.93;;
20336;SDS011;10326;53.660;10.200;2022-09-27T14:09:02;0.82;;;0.82;;
20336;SDS011;10326;53.660;10.200;2022-09-27T14:11:35;1.73;;;1.08;;
20336;SDS011;10326;53.660;10.200;2022-09-27T14:14:06;1.10;;;1.00;;
20336;SDS011;10326;53.660;10.200;2022-09-27T14:16:49;1.17;;;1.00;;
20336;SDS011;10326;53.660;10.200;2022-09-27T14:19:21;2.17;;;1.20;;
20336;SDS011;10326;53.660;10.200;2022-09-27T14:21:50;1.00;;;1.00;;
20336;SDS011;10326;53.660;10.200;2022-09-27T14:24:42;0.80;;;0.80;;
20336;SDS011;10326;53.660;10.200;2022-09-27T14:27:18;1.20;;;1.05;;
20336;SDS011;10326;53.660;10.200;2022-09-27T14:29:53;1.45;;;1.08;;
20336;SDS011;10326;53.660;10.200;2022-09-27T14:32:25;1.40;;;1.25;;
20336;SDS011;10326;53.660;10.200;2022-09-27T14:35:03;1.98;;;1.27;;
20336;SDS011;10326;53.660;10.200;2022-09-27T14:37:59;1.55;;;1.25;;
20336;SDS011;10326;53.660;10.200;2022-09-27T14:40:28;1.20;;;1.10;;
20336;SDS011;10326;53.660;10.200;2022-09-27T14:43:09;1.52;;;1.17;;
20336;SDS011;10326;53.660;10.200;2022-09-27T14:45:42;1.77;;;1.30;;
20336;SDS011;10326;53.660;10.200;2022-09-27T14:48:18;1.33;;;1.20;;
20336;SDS011;10326;53.660;10.200;2022-09-27T14:50:56;2.47;;;1.00;;
20336;SDS011;10326;53.660;10.200;2022-09-27T14:53:28;1.08;;;1.00;;
20336;SDS011;10326;53.660;10.200;2022-09-27T14:55:57;1.30;;;1.00;;
20336;SDS011;10326;53.660;10.200;2022-09-27T14:58:26;1.17;;;1.10;;
20336;SDS011;10326;53.660;10.200;2022-09-27T15:00:54;2.13;;;1.00;;
20336;SDS011;10326;53.660;10.200;2022-09-27T15:03:24;1.10;;;0.90;;
20336;SDS011;10326;53.660;10.200;2022-09-27T15:05:57;1.35;;;1.00;;
20336;SDS011;10326;53.660;10.200;2022-09-27T15:08:26;1.65;;;1.10;;
20336;SDS011;10326;53.660;10.200;2022-09-27T15:10:57;0.95;;;0.93;;
20336;SDS011;10326;53.660;10.200;2022-09-27T15:13:25;1.55;;;1.10;;
20336;SDS011;10326;53.660;10.200;2022-09-27T15:15:55;1.83;;;1.30;;
20336;SDS011;10326;53.660;10.200;2022-09-27T15:18:30;1.23;;;1.13;;
20336;SDS011;10326;53.660;10.200;2022-09-27T15:21:06;1.52;;;1.20;;
20336;SDS011;10326;53.660;10.200;2022-09-27T15:23:36;1.77;;;1.00;;
20336;SDS011;10326;53.660;10.200;2022-09-27T15:26:07;1.38;;;1.27;;
20336;SDS011;10326;53.660;10.200;2022-09-27T15:28:37;1.38;;;1.27;;
20336;SDS011;10326;53.660;10.200;2022-09-27T15:31:09;1.55;;;1.30;;
20336;SDS011;10326;53.660;10.200;2022-09-27T15:33:37;1.50;;;1.33;;
20336;SDS011;10326;53.660;10.200;2022-09-27T15:36:07;3.10;;;1.60;;
20336;SDS011;10326;53.660;10.200;2022-09-27T15:38:36;1.35;;;1.17;;
20336;SDS011;10326;53.660;10.200;2022-09-27T15:41:09;2.03;;;1.60;;
20336;SDS011;10326;53.660;10.200;2022-09-27T15:43:39;1.58;;;1.30;;
20336;SDS011;10326;53.660;10.200;2022-09-27T15:46:26;1.40;;;1.30;;